Arlington, MA (02474)

1:49 AM EST on November 29, 2014 (GMT -0500)
East Arlington | Change Station
CLOSE
Current Station
Personal Weather Station
Location: Arlington, MA
Elevation: 40 ft
Nearby Weather Stations

Elev 40 ft 42.40 °N, 71.14 °W | Updated 19 minutes ago

Clear
Clear
23.8 °F
Feels Like 24 °F
N
1.0
Wind Variable Wind from WNW
Gusts 4.0 mph

Today
High -- | Low -- °F
--% Chance of Precip.
Yesterday
High -- | Low -- °F
Precip. -- in
6:52 AM 4:13 PM
Waxing Crescent, 48% visible
Pressure 30.27 in
Visibility 10.0 miles
Clouds Few 3300 ft
Windchill 24 °F
Dew Point 19 °F
Humidity 83%
Rainfall 0.00 in
Snow Depth Not available.
UV 0 out of 12
Pollen .10 out of 12
Air Quality Not available.
Flu Activity Not available.
METAR KBED 290556Z 00000KT 10SM FEW033 M08/M09 A3022 RMK AO2 SLP250 I1001 I6001 T10831089 11028 21106 51014

More Conditions Fewer Conditions

Pressure 30.27 in
Visibility 10.0 miles
Clouds Few 3300 ft
Windchill 24 °F
Dew Point 19 °F
Humidity 83%
Rainfall 0.00 in
Snow Depth Not available.
UV 0 out of 12
Pollen .10 out of 12
Air Quality Not available.
Flu Activity Not available.
METAR KBED 290556Z 00000KT 10SM FEW033 M08/M09 A3022 RMK AO2 SLP250 I1001 I6001 T10831089 11028 21106 51014

More Conditions Fewer Conditions

10-Day Weather Forecast

Almanac

Astronomy

Nov. 29, 2014 Rise Set
Actual Time
Civil Twilight
Nautical Twilight
Astronomical Twilight
Moon
Length of Visible Light
Length of Day
Tomorrow will be .
, % of the Moon is Illuminated

Today's Extremes

State Highs State Lows

Community

WunderPhotos

Upload Photos

1,774,432 photos uploaded!

WunderBlogs® & News

Nearby

Air Quality

  Air Quality AQ Index Pollutant
Not available.

Snow Depth

Station Depth Elevation

Earthquake Activity

City Distance Mag. Time & Date
Minimum magnitude displayed is 2.5.

Coastal Water Temperatures

Place Temperature

Nearby Weather Stations